createdAt,value
2023-12-07T00:02:21.892Z,17.70
2023-12-07T00:04:55.528Z,17.68
2023-12-07T00:07:28.857Z,17.65
2023-12-07T00:10:02.333Z,17.69
2023-12-07T00:12:35.797Z,17.72
2023-12-07T00:15:12.087Z,17.73
2023-12-07T00:17:45.420Z,17.66
2023-12-07T00:20:18.763Z,17.71
2023-12-07T00:22:52.343Z,17.73
2023-12-07T00:25:26.065Z,17.72
2023-12-07T00:27:59.580Z,17.73
2023-12-07T00:30:33.113Z,17.77
2023-12-07T00:33:06.754Z,17.76
2023-12-07T00:35:40.875Z,17.74
2023-12-07T00:38:14.279Z,17.71
2023-12-07T00:40:47.890Z,17.66
2023-12-07T00:43:21.427Z,17.69
2023-12-07T00:45:55.184Z,17.65
2023-12-07T00:48:28.811Z,17.66
2023-12-07T00:51:02.422Z,17.73
2023-12-07T00:53:35.960Z,17.67
2023-12-07T00:56:11.228Z,17.67
2023-12-07T00:58:44.712Z,17.63
2023-12-07T01:01:18.165Z,17.69
2023-12-07T01:03:51.524Z,17.65
2023-12-07T01:06:25.005Z,17.68
2023-12-07T01:08:58.553Z,17.65
2023-12-07T01:11:31.963Z,17.66
2023-12-07T01:14:05.313Z,17.65
2023-12-07T01:16:39.085Z,17.72
2023-12-07T01:19:15.302Z,17.75
2023-12-07T01:21:48.641Z,17.73
2023-12-07T01:24:22.070Z,17.71
2023-12-07T01:26:55.447Z,17.77
2023-12-07T01:29:28.962Z,17.74
2023-12-07T01:32:02.335Z,17.71
2023-12-07T01:34:35.947Z,17.75
2023-12-07T01:37:09.709Z,17.68
2023-12-07T01:39:45.630Z,17.71
2023-12-07T01:42:19.104Z,17.77
2023-12-07T01:44:52.544Z,17.76
2023-12-07T01:47:26.008Z,17.77
2023-12-07T01:49:59.622Z,17.73
2023-12-07T01:52:33.364Z,17.77
2023-12-07T01:55:09.058Z,17.85
2023-12-07T01:57:43.851Z,17.79
2023-12-07T02:00:19.465Z,17.68
2023-12-07T02:02:54.263Z,17.65
2023-12-07T02:05:28.364Z,17.63
2023-12-07T02:08:01.890Z,17.65
2023-12-07T02:10:35.389Z,17.67
2023-12-07T02:13:09.830Z,17.69
2023-12-07T02:15:43.368Z,17.62
2023-12-07T02:18:27.737Z,17.54
2023-12-07T02:21:14.329Z,17.59
2023-12-07T02:23:52.552Z,17.63
2023-12-07T02:26:36.444Z,17.55
2023-12-07T02:29:10.035Z,17.60
2023-12-07T02:31:43.408Z,17.63
2023-12-07T02:34:16.973Z,17.58
2023-12-07T02:36:55.441Z,17.56
2023-12-07T02:39:29.265Z,17.58
2023-12-07T02:42:03.619Z,17.64
2023-12-07T02:44:37.935Z,17.66
2023-12-07T02:47:11.735Z,17.68
2023-12-07T02:49:45.308Z,17.76
2023-12-07T02:52:18.794Z,17.78
2023-12-07T02:54:52.324Z,17.70
2023-12-07T02:57:25.777Z,17.74
2023-12-07T02:59:59.187Z,17.75
2023-12-07T03:02:32.551Z,17.74
2023-12-07T03:05:06.768Z,17.84
2023-12-07T03:07:40.212Z,17.84
2023-12-07T03:10:14.316Z,17.83
2023-12-07T03:12:47.742Z,17.86
2023-12-07T03:15:21.214Z,17.82
2023-12-07T03:17:55.366Z,17.80
2023-12-07T03:20:28.837Z,17.84
2023-12-07T03:23:02.242Z,17.83
2023-12-07T03:25:35.734Z,17.76
2023-12-07T03:28:09.276Z,17.71
2023-12-07T03:30:42.644Z,17.68
2023-12-07T03:33:16.026Z,17.68
2023-12-07T03:35:50.213Z,17.70
2023-12-07T03:38:23.833Z,17.69
2023-12-07T03:40:57.294Z,17.67
2023-12-07T03:43:30.709Z,17.69
2023-12-07T03:46:07.502Z,17.68
2023-12-07T03:48:41.291Z,17.66
2023-12-07T03:51:18.085Z,17.67
2023-12-07T03:53:53.244Z,17.69
2023-12-07T03:56:31.811Z,17.71
2023-12-07T03:59:05.210Z,17.70
2023-12-07T04:01:38.763Z,17.66
2023-12-07T04:04:12.378Z,17.77
2023-12-07T04:06:45.874Z,17.72
2023-12-07T04:09:19.254Z,17.74
2023-12-07T04:11:52.641Z,17.72
2023-12-07T04:14:26.040Z,17.74
2023-12-07T04:16:59.453Z,17.71
2023-12-07T04:19:32.900Z,17.73
2023-12-07T04:22:06.657Z,17.68
2023-12-07T04:24:40.023Z,17.74
2023-12-07T04:27:14.508Z,17.69
2023-12-07T04:29:49.867Z,17.64
2023-12-07T04:32:23.560Z,17.75
2023-12-07T04:34:57.094Z,17.76
2023-12-07T04:37:30.477Z,17.72
2023-12-07T04:40:06.039Z,17.69
2023-12-07T04:42:39.460Z,17.64
2023-12-07T04:45:14.263Z,17.72
2023-12-07T04:47:47.733Z,17.58
2023-12-07T04:50:21.286Z,17.73
2023-12-07T04:52:55.896Z,17.76
2023-12-07T04:55:29.379Z,17.69
2023-12-07T04:58:02.747Z,17.72
2023-12-07T05:00:36.170Z,17.64
2023-12-07T05:03:10.061Z,17.63
2023-12-07T05:05:43.806Z,17.62
2023-12-07T05:08:17.168Z,17.64
2023-12-07T05:10:50.664Z,17.54
2023-12-07T05:13:24.143Z,17.63
2023-12-07T05:15:58.221Z,17.60
2023-12-07T05:18:31.837Z,17.60
2023-12-07T05:21:05.825Z,17.60
2023-12-07T05:23:40.216Z,17.63
2023-12-07T05:26:13.608Z,17.58
2023-12-07T05:28:47.020Z,17.58
2023-12-07T05:31:22.792Z,17.56
2023-12-07T05:33:56.306Z,17.57
2023-12-07T05:36:30.300Z,17.53
2023-12-07T05:39:04.089Z,17.41
2023-12-07T05:41:37.473Z,17.39
2023-12-07T05:44:10.893Z,17.38
2023-12-07T05:46:45.802Z,17.52
2023-12-07T05:49:19.347Z,17.42
2023-12-07T05:51:54.029Z,17.42
2023-12-07T05:54:27.648Z,17.45
2023-12-07T05:57:01.269Z,17.33
2023-12-07T05:59:34.589Z,17.27
2023-12-07T06:02:10.694Z,17.36
2023-12-07T06:04:44.250Z,17.32
2023-12-07T06:07:17.696Z,17.35
2023-12-07T06:09:51.071Z,17.31
2023-12-07T06:12:25.603Z,17.13
2023-12-07T06:15:00.206Z,17.24
2023-12-07T06:17:34.574Z,17.26
2023-12-07T06:20:09.920Z,17.33
2023-12-07T06:22:43.316Z,17.20
2023-12-07T06:25:17.468Z,17.25
2023-12-07T06:27:50.989Z,17.30
2023-12-07T06:30:25.936Z,17.34
2023-12-07T06:32:59.369Z,17.17
2023-12-07T06:35:32.710Z,17.21
2023-12-07T06:38:06.058Z,17.24
2023-12-07T06:40:39.494Z,17.35
2023-12-07T06:43:12.945Z,17.21
2023-12-07T06:45:46.419Z,17.26
2023-12-07T06:48:19.863Z,17.29
2023-12-07T06:50:53.226Z,17.03
2023-12-07T06:53:26.533Z,16.86
2023-12-07T06:56:00.023Z,16.80
2023-12-07T06:58:33.398Z,16.85
2023-12-07T07:01:07.231Z,16.90
2023-12-07T07:03:40.717Z,16.84
2023-12-07T07:06:14.393Z,16.82
2023-12-07T07:08:47.653Z,16.85
2023-12-07T07:11:21.018Z,16.82
2023-12-07T07:13:54.272Z,16.76
2023-12-07T07:16:27.650Z,16.82
2023-12-07T07:19:01.945Z,16.80
2023-12-07T07:21:35.809Z,16.76
2023-12-07T07:24:10.236Z,16.75
2023-12-07T07:26:43.644Z,16.81
2023-12-07T07:29:17.069Z,16.83
2023-12-07T07:31:50.678Z,16.80
2023-12-07T07:34:26.259Z,16.74
2023-12-07T07:36:59.968Z,16.74
2023-12-07T07:39:33.545Z,16.76
2023-12-07T07:42:07.210Z,16.72
2023-12-07T07:44:40.662Z,16.69
2023-12-07T07:47:14.050Z,16.74
2023-12-07T07:49:47.403Z,16.71
2023-12-07T07:52:20.945Z,17.04
2023-12-07T07:54:54.379Z,16.69
2023-12-07T07:57:28.177Z,16.67
2023-12-07T08:00:01.709Z,16.97
2023-12-07T08:02:35.074Z,17.18
2023-12-07T08:05:10.477Z,17.16
2023-12-07T08:07:44.129Z,17.33
2023-12-07T08:10:17.665Z,17.39
2023-12-07T08:12:52.045Z,17.34
2023-12-07T08:15:28.360Z,17.36
2023-12-07T08:18:01.847Z,17.32
2023-12-07T08:20:35.253Z,17.29
2023-12-07T08:23:08.607Z,17.30
2023-12-07T08:25:44.693Z,17.28
2023-12-07T08:28:19.041Z,17.36
2023-12-07T08:30:52.542Z,17.42
2023-12-07T08:33:26.004Z,17.37
2023-12-07T08:35:59.653Z,17.38
2023-12-07T08:38:33.684Z,17.35
2023-12-07T08:41:07.327Z,17.35
2023-12-07T08:43:40.677Z,17.27
2023-12-07T08:46:14.061Z,17.16
2023-12-07T08:48:47.462Z,17.09
2023-12-07T08:51:20.860Z,17.10
2023-12-07T08:53:55.419Z,17.12
2023-12-07T08:56:30.092Z,17.05
2023-12-07T08:59:03.882Z,17.12
2023-12-07T09:01:37.341Z,17.17
2023-12-07T09:04:10.837Z,17.26
2023-12-07T09:06:44.325Z,17.26
2023-12-07T09:09:17.727Z,17.24
2023-12-07T09:11:51.150Z,17.37
2023-12-07T09:14:24.603Z,17.43
2023-12-07T09:16:57.945Z,17.28
2023-12-07T09:19:31.243Z,17.33
2023-12-07T09:22:04.753Z,17.41
2023-12-07T09:24:39.141Z,17.37
2023-12-07T09:27:12.962Z,17.39
2023-12-07T09:29:46.282Z,17.42
2023-12-07T09:32:24.723Z,17.39
2023-12-07T09:35:03.333Z,17.54
2023-12-07T09:37:36.945Z,17.51
2023-12-07T09:40:16.712Z,17.55
2023-12-07T09:42:51.003Z,17.58
2023-12-07T09:45:26.468Z,17.60
2023-12-07T09:48:02.506Z,17.59
2023-12-07T09:50:37.185Z,17.61
2023-12-07T09:53:11.663Z,17.61
2023-12-07T09:55:45.431Z,17.57
2023-12-07T09:58:28.736Z,17.58
2023-12-07T10:01:06.309Z,17.68
2023-12-07T10:03:39.855Z,17.66
2023-12-07T10:06:13.412Z,17.73
2023-12-07T10:08:48.036Z,17.68
2023-12-07T10:11:22.049Z,17.74
2023-12-07T10:13:56.026Z,17.69
2023-12-07T10:16:29.397Z,17.71
2023-12-07T10:19:29.558Z,17.66
2023-12-07T10:22:17.283Z,17.69
2023-12-07T10:24:51.370Z,17.67
2023-12-07T10:27:25.654Z,17.70
2023-12-07T10:29:59.320Z,17.73
2023-12-07T10:32:32.973Z,17.65
2023-12-07T10:35:08.029Z,17.65
2023-12-07T10:37:41.476Z,17.73
2023-12-07T10:40:16.457Z,17.72
2023-12-07T10:42:57.398Z,17.73
2023-12-07T10:45:33.153Z,17.69
2023-12-07T10:48:09.811Z,17.77
2023-12-07T10:50:53.066Z,17.81
2023-12-07T10:53:38.527Z,17.81
2023-12-07T10:56:19.204Z,17.75
2023-12-07T10:58:54.996Z,17.82
2023-12-07T11:01:28.678Z,17.83
2023-12-07T11:04:03.246Z,17.87
2023-12-07T11:06:37.918Z,17.91
2023-12-07T11:09:17.361Z,17.94
2023-12-07T11:12:00.569Z,17.88
2023-12-07T11:14:35.158Z,17.86
2023-12-07T11:17:08.684Z,17.89
2023-12-07T11:19:51.952Z,17.93
2023-12-07T11:22:27.609Z,17.98
2023-12-07T11:25:04.384Z,17.91
2023-12-07T11:27:39.815Z,18.02
2023-12-07T11:30:15.579Z,17.90
2023-12-07T11:32:49.726Z,18.01
2023-12-07T11:35:23.375Z,18.12
2023-12-07T11:38:12.809Z,18.04
2023-12-07T11:40:47.650Z,17.82
2023-12-07T11:43:39.153Z,17.73
2023-12-07T11:46:14.108Z,17.89
2023-12-07T11:48:52.384Z,17.79
2023-12-07T11:51:26.627Z,17.83
2023-12-07T11:53:59.993Z,17.86
2023-12-07T11:56:33.601Z,17.83
2023-12-07T11:59:09.002Z,17.80
2023-12-07T12:01:50.213Z,17.71
2023-12-07T12:04:24.938Z,17.71
2023-12-07T12:06:58.454Z,17.72
2023-12-07T12:09:33.118Z,17.68
2023-12-07T12:12:07.850Z,17.72
2023-12-07T12:14:41.291Z,17.75
2023-12-07T12:17:18.948Z,17.77
2023-12-07T12:19:56.060Z,17.74
2023-12-07T12:22:30.706Z,17.66
2023-12-07T12:25:04.432Z,17.72
2023-12-07T12:27:38.241Z,17.76
2023-12-07T12:30:14.480Z,17.81
2023-12-07T12:32:51.530Z,17.77
2023-12-07T12:35:25.015Z,17.97
2023-12-07T12:37:58.594Z,17.91
2023-12-07T12:40:33.163Z,17.79
2023-12-07T12:43:06.824Z,17.84
2023-12-07T12:45:40.840Z,17.90
2023-12-07T12:48:14.444Z,17.90
2023-12-07T12:50:49.280Z,17.92
2023-12-07T12:53:24.308Z,17.87
2023-12-07T12:55:59.052Z,17.92
2023-12-07T12:58:32.505Z,17.88
2023-12-07T13:01:07.964Z,17.84
2023-12-07T13:03:41.409Z,17.83
2023-12-07T13:06:15.431Z,17.78
2023-12-07T13:08:50.413Z,17.78
2023-12-07T13:11:24.009Z,17.71
2023-12-07T13:13:57.393Z,17.75
2023-12-07T13:16:30.817Z,17.76
2023-12-07T13:19:04.313Z,17.77
2023-12-07T13:21:37.786Z,17.90
2023-12-07T13:24:13.965Z,17.75
2023-12-07T13:26:48.784Z,17.88
2023-12-07T13:29:28.999Z,17.98
2023-12-07T13:32:11.035Z,17.87
2023-12-07T13:34:45.190Z,17.79
2023-12-07T13:37:18.813Z,17.79
2023-12-07T13:39:57.084Z,17.82
2023-12-07T13:42:32.637Z,17.79
2023-12-07T13:45:09.468Z,17.70
2023-12-07T13:47:42.824Z,17.73
2023-12-07T13:50:16.235Z,17.74
2023-12-07T13:52:49.562Z,17.77
2023-12-07T13:55:25.436Z,17.87
2023-12-07T13:58:00.379Z,17.86
2023-12-07T14:00:33.857Z,17.78
2023-12-07T14:03:07.482Z,17.78
2023-12-07T14:05:42.610Z,17.87
2023-12-07T14:08:16.033Z,17.87
2023-12-07T14:10:49.729Z,17.86
2023-12-07T14:13:23.046Z,17.87
2023-12-07T14:16:02.808Z,17.85
2023-12-07T14:18:40.689Z,17.83
2023-12-07T14:21:23.761Z,17.89
2023-12-07T14:24:05.743Z,17.86
2023-12-07T14:26:39.241Z,17.86
2023-12-07T14:29:18.528Z,17.93
2023-12-07T14:31:56.738Z,17.91
2023-12-07T14:34:34.986Z,17.95
2023-12-07T14:37:09.832Z,17.93
2023-12-07T14:39:45.161Z,17.92
2023-12-07T14:42:18.463Z,18.07
2023-12-07T14:44:51.867Z,18.01
2023-12-07T14:47:25.264Z,18.06
2023-12-07T14:49:58.621Z,18.04
2023-12-07T14:52:32.001Z,18.08
2023-12-07T14:55:06.165Z,17.97
2023-12-07T14:57:39.541Z,18.05
2023-12-07T15:00:14.820Z,17.96
2023-12-07T15:02:48.132Z,17.88
2023-12-07T15:05:23.682Z,18.03
2023-12-07T15:07:57.779Z,17.96
2023-12-07T15:10:31.233Z,18.05
2023-12-07T15:13:04.756Z,17.94
2023-12-07T15:15:38.608Z,17.95
2023-12-07T15:18:12.083Z,18.06
2023-12-07T15:20:45.837Z,17.97
2023-12-07T15:23:19.238Z,17.92
2023-12-07T15:25:52.585Z,17.96
2023-12-07T15:28:26.398Z,17.83
2023-12-07T15:30:59.789Z,17.83
2023-12-07T15:33:33.665Z,18.01
2023-12-07T15:36:08.963Z,18.00
2023-12-07T15:38:43.838Z,17.83
2023-12-07T15:41:17.242Z,17.83
2023-12-07T15:43:50.634Z,17.85
2023-12-07T15:46:25.207Z,17.88
2023-12-07T15:48:58.740Z,17.83
2023-12-07T15:51:32.380Z,17.88
2023-12-07T15:54:05.813Z,17.92
2023-12-07T15:56:45.291Z,17.88
2023-12-07T15:59:18.636Z,17.82
2023-12-07T16:01:53.769Z,17.81
2023-12-07T16:04:32.860Z,17.86
2023-12-07T16:07:11.136Z,17.81
2023-12-07T16:09:45.104Z,17.86
2023-12-07T16:12:18.542Z,17.83
2023-12-07T16:14:57.139Z,17.83
2023-12-07T16:17:30.536Z,17.91
2023-12-07T16:20:04.858Z,17.94
2023-12-07T16:22:38.429Z,17.91
2023-12-07T16:25:17.214Z,17.82
2023-12-07T16:27:55.560Z,17.83
2023-12-07T16:30:34.245Z,17.87
2023-12-07T16:33:10.618Z,17.90
2023-12-07T16:35:45.084Z,17.89
2023-12-07T16:38:18.490Z,17.91
2023-12-07T16:40:51.947Z,17.92
2023-12-07T16:43:26.458Z,17.99
2023-12-07T16:45:59.873Z,17.91
2023-12-07T16:48:33.704Z,17.88
2023-12-07T16:51:08.043Z,17.92
2023-12-07T16:53:42.381Z,17.90
2023-12-07T16:56:15.915Z,17.98
2023-12-07T16:58:49.913Z,17.95
2023-12-07T17:01:23.819Z,17.92
2023-12-07T17:03:57.527Z,17.87
2023-12-07T17:06:32.042Z,17.88
2023-12-07T17:09:11.627Z,17.91
2023-12-07T17:11:49.471Z,17.92
2023-12-07T17:14:22.935Z,17.94
2023-12-07T17:16:56.397Z,17.95
2023-12-07T17:19:33.207Z,17.91
2023-12-07T17:22:12.228Z,17.93
2023-12-07T17:24:45.622Z,17.96
2023-12-07T17:27:19.129Z,18.01
2023-12-07T17:29:52.527Z,18.08
2023-12-07T17:32:26.529Z,18.03
2023-12-07T17:35:00.980Z,17.98
2023-12-07T17:37:34.375Z,17.92
2023-12-07T17:40:09.426Z,17.83
2023-12-07T17:42:42.845Z,17.91
2023-12-07T17:45:16.650Z,17.86
2023-12-07T17:47:50.229Z,17.89
2023-12-07T17:50:23.631Z,17.54
2023-12-07T17:52:56.922Z,17.47
2023-12-07T17:55:30.280Z,17.51
2023-12-07T17:58:03.626Z,17.80
2023-12-07T18:00:37.022Z,17.89
2023-12-07T18:03:10.471Z,17.88
2023-12-07T18:05:44.041Z,17.86
2023-12-07T18:08:17.477Z,17.85
2023-12-07T18:10:51.120Z,17.89
2023-12-07T18:13:24.438Z,17.90
2023-12-07T18:15:59.288Z,17.84
2023-12-07T18:18:33.014Z,17.86
2023-12-07T18:21:07.004Z,17.84
2023-12-07T18:23:40.567Z,17.96
2023-12-07T18:26:14.384Z,17.87
2023-12-07T18:28:47.733Z,17.88
2023-12-07T18:31:22.079Z,17.89
2023-12-07T18:33:55.551Z,17.89
2023-12-07T18:36:28.916Z,17.88
2023-12-07T18:39:03.148Z,17.86
2023-12-07T18:41:37.521Z,17.90
2023-12-07T18:44:11.086Z,17.88
2023-12-07T18:46:44.408Z,17.87
2023-12-07T18:49:17.819Z,17.90
2023-12-07T18:51:51.204Z,17.89
2023-12-07T18:54:25.149Z,17.81
2023-12-07T18:56:58.553Z,17.83
2023-12-07T18:59:32.169Z,17.89
2023-12-07T19:02:05.742Z,17.88
2023-12-07T19:04:39.205Z,17.89
2023-12-07T19:07:12.716Z,17.92
2023-12-07T19:09:46.487Z,17.90
2023-12-07T19:12:19.907Z,17.91
2023-12-07T19:14:53.295Z,17.89
2023-12-07T19:17:27.127Z,17.95
2023-12-07T19:20:00.630Z,17.91
2023-12-07T19:22:34.140Z,17.92
2023-12-07T19:25:08.719Z,17.96
2023-12-07T19:27:42.135Z,17.95
2023-12-07T19:30:16.912Z,17.88
2023-12-07T19:32:50.430Z,17.90
2023-12-07T19:35:24.470Z,17.90
2023-12-07T19:37:57.885Z,17.92
2023-12-07T19:40:31.210Z,18.00
2023-12-07T19:43:04.584Z,17.96
2023-12-07T19:45:38.964Z,18.02
2023-12-07T19:48:12.912Z,18.02
2023-12-07T19:50:46.584Z,17.99
2023-12-07T19:53:21.200Z,18.16
2023-12-07T19:55:54.747Z,18.16
2023-12-07T19:58:28.775Z,18.18
2023-12-07T20:01:02.167Z,18.21
2023-12-07T20:03:35.678Z,18.16
2023-12-07T20:06:10.010Z,18.12
2023-12-07T20:08:43.490Z,18.08
2023-12-07T20:11:23.259Z,18.18
2023-12-07T20:13:56.590Z,18.17
2023-12-07T20:16:29.928Z,18.21
2023-12-07T20:19:04.806Z,18.19
2023-12-07T20:21:42.784Z,18.17
2023-12-07T20:24:17.200Z,18.16
2023-12-07T20:26:50.598Z,18.17
2023-12-07T20:29:27.276Z,18.22
2023-12-07T20:32:00.887Z,18.17
2023-12-07T20:34:34.726Z,18.20
2023-12-07T20:37:08.193Z,18.21
2023-12-07T20:39:41.867Z,18.27
2023-12-07T20:42:15.436Z,18.29
2023-12-07T20:44:48.917Z,18.28
2023-12-07T20:47:22.246Z,18.25
2023-12-07T20:49:55.605Z,18.22
2023-12-07T20:52:29.343Z,18.23
2023-12-07T20:55:02.961Z,18.27
2023-12-07T20:57:36.386Z,18.31
2023-12-07T21:00:12.730Z,18.39
2023-12-07T21:02:46.467Z,18.37
2023-12-07T21:05:19.969Z,18.39
2023-12-07T21:07:53.495Z,18.24
2023-12-07T21:10:27.117Z,18.34
2023-12-07T21:13:00.805Z,18.44
2023-12-07T21:15:35.733Z,18.34
2023-12-07T21:18:09.523Z,18.31
2023-12-07T21:20:43.150Z,18.32
2023-12-07T21:23:16.611Z,18.31
2023-12-07T21:25:50.570Z,18.30
2023-12-07T21:28:24.052Z,18.25
2023-12-07T21:30:58.414Z,18.29
2023-12-07T21:33:31.939Z,18.27
2023-12-07T21:36:05.846Z,18.31
2023-12-07T21:38:41.067Z,18.27
2023-12-07T21:41:15.380Z,18.21
2023-12-07T21:43:48.948Z,18.22
2023-12-07T21:46:22.255Z,18.45
2023-12-07T21:48:55.804Z,18.48
2023-12-07T21:51:29.278Z,18.34
2023-12-07T21:54:02.621Z,18.30
2023-12-07T21:56:36.020Z,18.32
2023-12-07T21:59:09.357Z,18.30
2023-12-07T22:01:42.635Z,18.31
2023-12-07T22:04:16.003Z,18.27
2023-12-07T22:06:52.002Z,18.36
2023-12-07T22:09:25.290Z,18.37
2023-12-07T22:11:58.651Z,18.47
2023-12-07T22:14:32.039Z,18.49
2023-12-07T22:17:05.890Z,18.45
2023-12-07T22:19:39.216Z,18.48
2023-12-07T22:22:13.292Z,18.52
2023-12-07T22:24:47.468Z,18.46
2023-12-07T22:27:21.372Z,18.47
2023-12-07T22:29:54.706Z,18.47
2023-12-07T22:32:28.251Z,18.54
2023-12-07T22:35:01.840Z,18.50
2023-12-07T22:37:35.358Z,18.46
2023-12-07T22:40:11.096Z,18.46
2023-12-07T22:42:44.408Z,18.39
2023-12-07T22:45:18.986Z,18.49
2023-12-07T22:47:52.578Z,18.48
2023-12-07T22:50:26.363Z,18.49
2023-12-07T22:52:59.674Z,18.53
2023-12-07T22:55:33.387Z,18.49
2023-12-07T22:58:06.931Z,18.46
2023-12-07T23:00:40.269Z,18.56
2023-12-07T23:03:13.636Z,18.51
2023-12-07T23:05:47.153Z,18.50
2023-12-07T23:08:20.508Z,18.57
2023-12-07T23:10:53.921Z,18.57
2023-12-07T23:13:27.383Z,18.52
2023-12-07T23:16:00.739Z,18.46
2023-12-07T23:18:34.224Z,18.36
2023-12-07T23:21:11.837Z,18.43
2023-12-07T23:23:45.276Z,18.57
2023-12-07T23:26:18.700Z,18.46
2023-12-07T23:28:52.014Z,18.56
2023-12-07T23:31:25.382Z,18.50
2023-12-07T23:33:58.868Z,18.59
2023-12-07T23:36:32.561Z,18.57
2023-12-07T23:39:06.720Z,18.59
2023-12-07T23:41:40.043Z,18.57
2023-12-07T23:44:13.361Z,18.61
2023-12-07T23:46:49.692Z,18.65
2023-12-07T23:49:23.192Z,18.55
2023-12-07T23:51:56.989Z,18.57
2023-12-07T23:54:30.319Z,18.66
2023-12-07T23:57:03.756Z,18.62
2023-12-07T23:59:37.197Z,18.71
